sensor_id;sensor_type;location;lat;lon;timestamp;pressure;altitude;pressure_sealevel;temperature
72236;BMP280;60146;52.498;13.462;2022-08-01T00:02:04;100959.22;;;23.74
72236;BMP280;60146;52.498;13.462;2022-08-01T00:04:29;100957.41;;;23.81
72236;BMP280;60146;52.498;13.462;2022-08-01T00:06:55;100951.19;;;23.74
72236;BMP280;60146;52.498;13.462;2022-08-01T00:09:20;100951.91;;;23.68
72236;BMP280;60146;52.498;13.462;2022-08-01T00:11:45;100958.03;;;23.72
72236;BMP280;60146;52.498;13.462;2022-08-01T00:14:11;100964.22;;;23.75
72236;BMP280;60146;52.498;13.462;2022-08-01T00:16:36;100969.50;;;23.72
72236;BMP280;60146;52.498;13.462;2022-08-01T00:19:01;100971.06;;;23.73
72236;BMP280;60146;52.498;13.462;2022-08-01T00:21:27;100974.72;;;23.62
72236;BMP280;60146;52.498;13.462;2022-08-01T00:23:52;100981.34;;;23.42
72236;BMP280;60146;52.498;13.462;2022-08-01T00:26:17;100973.38;;;23.46
72236;BMP280;60146;52.498;13.462;2022-08-01T00:28:42;100978.66;;;23.39
72236;BMP280;60146;52.498;13.462;2022-08-01T00:31:08;100984.69;;;23.36
72236;BMP280;60146;52.498;13.462;2022-08-01T00:33:33;100973.56;;;23.34
72236;BMP280;60146;52.498;13.462;2022-08-01T00:35:58;100968.97;;;23.31
72236;BMP280;60146;52.498;13.462;2022-08-01T00:38:24;100970.13;;;23.30
72236;BMP280;60146;52.498;13.462;2022-08-01T00:40:50;100975.75;;;23.25
72236;BMP280;60146;52.498;13.462;2022-08-01T00:43:15;100981.25;;;23.36
72236;BMP280;60146;52.498;13.462;2022-08-01T00:45:41;100983.03;;;23.28
72236;BMP280;60146;52.498;13.462;2022-08-01T00:48:06;100982.00;;;23.33
72236;BMP280;60146;52.498;13.462;2022-08-01T00:50:32;100991.91;;;23.32
72236;BMP280;60146;52.498;13.462;2022-08-01T00:52:58;100978.16;;;23.30
72236;BMP280;60146;52.498;13.462;2022-08-01T00:55:24;100970.41;;;23.25
72236;BMP280;60146;52.498;13.462;2022-08-01T00:57:49;100975.41;;;23.27
72236;BMP280;60146;52.498;13.462;2022-08-01T01:00:15;100978.44;;;23.25
72236;BMP280;60146;52.498;13.462;2022-08-01T01:02:40;100968.31;;;23.12
72236;BMP280;60146;52.498;13.462;2022-08-01T01:05:06;100977.72;;;23.03
72236;BMP280;60146;52.498;13.462;2022-08-01T01:07:53;100978.25;;;22.90
72236;BMP280;60146;52.498;13.462;2022-08-01T01:10:32;100970.59;;;22.88
72236;BMP280;60146;52.498;13.462;2022-08-01T01:13:11;100970.50;;;22.82
72236;BMP280;60146;52.498;13.462;2022-08-01T01:15:43;100962.03;;;22.80
72236;BMP280;60146;52.498;13.462;2022-08-01T01:18:22;100962.38;;;22.75
72236;BMP280;60146;52.498;13.462;2022-08-01T01:20:56;100963.88;;;22.76
72236;BMP280;60146;52.498;13.462;2022-08-01T01:29:27;100964.09;;;22.64
72236;BMP280;60146;52.498;13.462;2022-08-01T01:32:00;100956.91;;;22.68
72236;BMP280;60146;52.498;13.462;2022-08-01T01:34:27;100955.63;;;22.62
72236;BMP280;60146;52.498;13.462;2022-08-01T01:36:54;100967.94;;;22.66
72236;BMP280;60146;52.498;13.462;2022-08-01T01:39:21;100961.03;;;22.65
72236;BMP280;60146;52.498;13.462;2022-08-01T01:41:49;100959.19;;;22.69
72236;BMP280;60146;52.498;13.462;2022-08-01T01:44:15;100952.50;;;22.57
72236;BMP280;60146;52.498;13.462;2022-08-01T01:46:42;100943.28;;;22.54
72236;BMP280;60146;52.498;13.462;2022-08-01T01:49:08;100950.81;;;22.71
72236;BMP280;60146;52.498;13.462;2022-08-01T01:51:36;100949.56;;;22.65
72236;BMP280;60146;52.498;13.462;2022-08-01T01:54:03;100948.75;;;22.61
72236;BMP280;60146;52.498;13.462;2022-08-01T01:56:29;100954.31;;;22.53
72236;BMP280;60146;52.498;13.462;2022-08-01T01:58:58;100955.94;;;22.57
72236;BMP280;60146;52.498;13.462;2022-08-01T02:01:27;100958.28;;;22.62
72236;BMP280;60146;52.498;13.462;2022-08-01T02:03:54;100957.53;;;22.40
72236;BMP280;60146;52.498;13.462;2022-08-01T02:06:21;100963.69;;;22.44
72236;BMP280;60146;52.498;13.462;2022-08-01T02:08:49;100954.13;;;22.21
72236;BMP280;60146;52.498;13.462;2022-08-01T02:11:15;100965.44;;;22.14
72236;BMP280;60146;52.498;13.462;2022-08-01T02:13:46;100973.75;;;22.10
72236;BMP280;60146;52.498;13.462;2022-08-01T02:16:12;100964.47;;;22.04
72236;BMP280;60146;52.498;13.462;2022-08-01T02:18:37;100965.00;;;22.12
72236;BMP280;60146;52.498;13.462;2022-08-01T02:21:05;100958.44;;;22.07
72236;BMP280;60146;52.498;13.462;2022-08-01T02:23:34;100957.97;;;21.86
72236;BMP280;60146;52.498;13.462;2022-08-01T02:26:02;100956.66;;;21.95
72236;BMP280;60146;52.498;13.462;2022-08-01T02:28:36;100963.44;;;21.90
72236;BMP280;60146;52.498;13.462;2022-08-01T02:31:07;100960.34;;;21.88
72236;BMP280;60146;52.498;13.462;2022-08-01T02:33:46;100961.00;;;21.85
72236;BMP280;60146;52.498;13.462;2022-08-01T02:36:15;100954.69;;;21.74
72236;BMP280;60146;52.498;13.462;2022-08-01T02:38:43;100962.75;;;21.59
72236;BMP280;60146;52.498;13.462;2022-08-01T02:41:12;100971.84;;;21.58
72236;BMP280;60146;52.498;13.462;2022-08-01T02:43:43;100975.56;;;21.69
72236;BMP280;60146;52.498;13.462;2022-08-01T02:46:16;100964.75;;;21.47
72236;BMP280;60146;52.498;13.462;2022-08-01T02:48:43;100960.19;;;21.47
72236;BMP280;60146;52.498;13.462;2022-08-01T02:51:10;100962.84;;;21.47
72236;BMP280;60146;52.498;13.462;2022-08-01T02:53:38;100965.13;;;21.45
72236;BMP280;60146;52.498;13.462;2022-08-01T02:56:05;100960.06;;;21.40
72236;BMP280;60146;52.498;13.462;2022-08-01T02:58:31;100967.09;;;21.48
72236;BMP280;60146;52.498;13.462;2022-08-01T03:00:58;100961.91;;;21.55
72236;BMP280;60146;52.498;13.462;2022-08-01T03:03:24;100970.75;;;21.59
72236;BMP280;60146;52.498;13.462;2022-08-01T03:05:49;100968.94;;;21.63
72236;BMP280;60146;52.498;13.462;2022-08-01T03:08:16;100960.75;;;21.71
72236;BMP280;60146;52.498;13.462;2022-08-01T03:10:44;100964.06;;;21.68
72236;BMP280;60146;52.498;13.462;2022-08-01T03:13:14;100971.00;;;21.69
72236;BMP280;60146;52.498;13.462;2022-08-01T03:15:42;100974.28;;;21.63
72236;BMP280;60146;52.498;13.462;2022-08-01T03:18:09;100968.09;;;21.77
72236;BMP280;60146;52.498;13.462;2022-08-01T03:20:35;100975.66;;;21.57
72236;BMP280;60146;52.498;13.462;2022-08-01T03:23:09;100966.84;;;21.38
72236;BMP280;60146;52.498;13.462;2022-08-01T03:25:37;100977.81;;;21.33
72236;BMP280;60146;52.498;13.462;2022-08-01T03:28:04;100968.94;;;21.29
72236;BMP280;60146;52.498;13.462;2022-08-01T03:30:31;100979.88;;;21.24
72236;BMP280;60146;52.498;13.462;2022-08-01T03:32:57;100982.44;;;21.21
72236;BMP280;60146;52.498;13.462;2022-08-01T03:35:26;100982.13;;;21.22
72236;BMP280;60146;52.498;13.462;2022-08-01T03:37:54;100986.16;;;21.17
72236;BMP280;60146;52.498;13.462;2022-08-01T03:40:24;100991.47;;;21.32
72236;BMP280;60146;52.498;13.462;2022-08-01T03:42:58;100990.97;;;21.41
72236;BMP280;60146;52.498;13.462;2022-08-01T03:45:32;100989.72;;;21.39
72236;BMP280;60146;52.498;13.462;2022-08-01T03:48:02;100985.16;;;21.39
72236;BMP280;60146;52.498;13.462;2022-08-01T03:50:30;100987.81;;;21.55
72236;BMP280;60146;52.498;13.462;2022-08-01T03:53:00;100999.53;;;21.50
72236;BMP280;60146;52.498;13.462;2022-08-01T03:55:26;100996.69;;;21.43
72236;BMP280;60146;52.498;13.462;2022-08-01T03:57:52;100992.16;;;21.44
72236;BMP280;60146;52.498;13.462;2022-08-01T04:00:18;100997.53;;;21.47
72236;BMP280;60146;52.498;13.462;2022-08-01T04:02:45;100998.47;;;21.70
72236;BMP280;60146;52.498;13.462;2022-08-01T04:05:11;100993.75;;;21.63
72236;BMP280;60146;52.498;13.462;2022-08-01T04:07:36;100994.25;;;21.69
72236;BMP280;60146;52.498;13.462;2022-08-01T04:10:04;101005.28;;;21.86
72236;BMP280;60146;52.498;13.462;2022-08-01T04:12:30;100992.84;;;21.74
72236;BMP280;60146;52.498;13.462;2022-08-01T04:14:55;101000.28;;;21.84
72236;BMP280;60146;52.498;13.462;2022-08-01T04:17:21;100994.81;;;21.96
72236;BMP280;60146;52.498;13.462;2022-08-01T04:19:46;100993.53;;;21.90
72236;BMP280;60146;52.498;13.462;2022-08-01T04:22:13;100992.78;;;21.71
72236;BMP280;60146;52.498;13.462;2022-08-01T04:24:41;101000.00;;;21.71
72236;BMP280;60146;52.498;13.462;2022-08-01T04:27:13;100997.53;;;21.62
72236;BMP280;60146;52.498;13.462;2022-08-01T04:29:41;100999.41;;;21.62
72236;BMP280;60146;52.498;13.462;2022-08-01T04:32:09;101001.00;;;21.81
72236;BMP280;60146;52.498;13.462;2022-08-01T04:34:37;101001.41;;;21.83
72236;BMP280;60146;52.498;13.462;2022-08-01T04:37:07;100998.03;;;22.05
72236;BMP280;60146;52.498;13.462;2022-08-01T04:39:34;101002.84;;;22.14
72236;BMP280;60146;52.498;13.462;2022-08-01T04:42:04;101003.03;;;22.06
72236;BMP280;60146;52.498;13.462;2022-08-01T04:44:29;101000.16;;;21.96
72236;BMP280;60146;52.498;13.462;2022-08-01T04:46:58;101002.13;;;21.99
72236;BMP280;60146;52.498;13.462;2022-08-01T04:49:24;101008.13;;;22.11
72236;BMP280;60146;52.498;13.462;2022-08-01T04:51:51;101011.84;;;22.25
72236;BMP280;60146;52.498;13.462;2022-08-01T04:54:16;101009.09;;;22.22
72236;BMP280;60146;52.498;13.462;2022-08-01T04:56:42;101014.00;;;22.20
72236;BMP280;60146;52.498;13.462;2022-08-01T04:59:07;101011.38;;;22.23
72236;BMP280;60146;52.498;13.462;2022-08-01T05:01:51;101018.28;;;22.24
72236;BMP280;60146;52.498;13.462;2022-08-01T05:04:16;101017.59;;;22.27
72236;BMP280;60146;52.498;13.462;2022-08-01T05:06:41;101012.81;;;22.17
72236;BMP280;60146;52.498;13.462;2022-08-01T05:09:07;101023.00;;;22.30
72236;BMP280;60146;52.498;13.462;2022-08-01T05:11:32;101017.41;;;22.17
72236;BMP280;60146;52.498;13.462;2022-08-01T05:13:57;101017.31;;;22.13
72236;BMP280;60146;52.498;13.462;2022-08-01T05:16:23;101022.66;;;22.13
72236;BMP280;60146;52.498;13.462;2022-08-01T05:18:48;101029.81;;;21.91
72236;BMP280;60146;52.498;13.462;2022-08-01T05:21:13;101027.41;;;22.05
72236;BMP280;60146;52.498;13.462;2022-08-01T05:23:38;101018.63;;;22.04
72236;BMP280;60146;52.498;13.462;2022-08-01T05:26:04;101022.94;;;22.09
72236;BMP280;60146;52.498;13.462;2022-08-01T05:28:30;101024.88;;;22.11
72236;BMP280;60146;52.498;13.462;2022-08-01T05:30:58;101025.72;;;22.15
72236;BMP280;60146;52.498;13.462;2022-08-01T05:33:23;101027.66;;;22.15
72236;BMP280;60146;52.498;13.462;2022-08-01T05:35:48;101022.53;;;22.07
72236;BMP280;60146;52.498;13.462;2022-08-01T05:38:14;101014.72;;;22.17
72236;BMP280;60146;52.498;13.462;2022-08-01T05:40:39;101025.06;;;22.18
72236;BMP280;60146;52.498;13.462;2022-08-01T05:43:04;101024.50;;;22.28
72236;BMP280;60146;52.498;13.462;2022-08-01T05:45:30;101029.63;;;22.36
72236;BMP280;60146;52.498;13.462;2022-08-01T05:47:55;101022.16;;;22.27
72236;BMP280;60146;52.498;13.462;2022-08-01T05:50:20;101027.63;;;22.33
72236;BMP280;60146;52.498;13.462;2022-08-01T05:52:46;101032.19;;;22.33
72236;BMP280;60146;52.498;13.462;2022-08-01T05:55:11;101028.47;;;22.37
72236;BMP280;60146;52.498;13.462;2022-08-01T05:57:36;101026.44;;;22.49
72236;BMP280;60146;52.498;13.462;2022-08-01T06:00:02;101039.63;;;22.61
72236;BMP280;60146;52.498;13.462;2022-08-01T06:02:27;101036.06;;;22.76
72236;BMP280;60146;52.498;13.462;2022-08-01T06:04:53;101040.84;;;22.64
72236;BMP280;60146;52.498;13.462;2022-08-01T06:07:18;101042.81;;;22.88
72236;BMP280;60146;52.498;13.462;2022-08-01T06:09:50;101046.00;;;22.97
72236;BMP280;60146;52.498;13.462;2022-08-01T06:12:15;101046.44;;;22.99
72236;BMP280;60146;52.498;13.462;2022-08-01T06:15:03;101034.09;;;22.91
72236;BMP280;60146;52.498;13.462;2022-08-01T06:17:42;101041.97;;;22.84
72236;BMP280;60146;52.498;13.462;2022-08-01T06:20:08;101046.72;;;22.94
72236;BMP280;60146;52.498;13.462;2022-08-01T06:22:37;101047.84;;;22.93
72236;BMP280;60146;52.498;13.462;2022-08-01T06:25:02;101057.19;;;23.02
72236;BMP280;60146;52.498;13.462;2022-08-01T06:27:28;101053.28;;;23.00
72236;BMP280;60146;52.498;13.462;2022-08-01T06:29:56;101048.63;;;22.94
72236;BMP280;60146;52.498;13.462;2022-08-01T06:32:22;101054.97;;;23.08
72236;BMP280;60146;52.498;13.462;2022-08-01T06:34:48;101058.75;;;22.82
72236;BMP280;60146;52.498;13.462;2022-08-01T06:37:13;101049.78;;;22.93
72236;BMP280;60146;52.498;13.462;2022-08-01T06:39:39;101060.81;;;22.91
72236;BMP280;60146;52.498;13.462;2022-08-01T06:42:05;101062.78;;;22.94
72236;BMP280;60146;52.498;13.462;2022-08-01T06:44:30;101061.56;;;23.14
72236;BMP280;60146;52.498;13.462;2022-08-01T06:46:55;101057.56;;;23.01
72236;BMP280;60146;52.498;13.462;2022-08-01T06:49:23;101061.94;;;23.12
72236;BMP280;60146;52.498;13.462;2022-08-01T06:51:48;101061.25;;;23.19
72236;BMP280;60146;52.498;13.462;2022-08-01T06:54:14;101058.81;;;23.32
72236;BMP280;60146;52.498;13.462;2022-08-01T06:56:39;101057.56;;;23.26
72236;BMP280;60146;52.498;13.462;2022-08-01T06:59:25;101059.59;;;23.33
72236;BMP280;60146;52.498;13.462;2022-08-01T07:02:28;101053.50;;;23.57
72236;BMP280;60146;52.498;13.462;2022-08-01T07:05:04;101061.97;;;23.88
72236;BMP280;60146;52.498;13.462;2022-08-01T07:07:30;101060.25;;;24.06
72236;BMP280;60146;52.498;13.462;2022-08-01T07:09:56;101058.09;;;24.14
72236;BMP280;60146;52.498;13.462;2022-08-01T07:12:24;101060.31;;;24.12
72236;BMP280;60146;52.498;13.462;2022-08-01T07:14:49;101048.16;;;24.18
72236;BMP280;60146;52.498;13.462;2022-08-01T07:17:14;101062.22;;;24.12
72236;BMP280;60146;52.498;13.462;2022-08-01T07:19:39;101060.63;;;24.04
72236;BMP280;60146;52.498;13.462;2022-08-01T07:22:05;101062.22;;;24.12
72236;BMP280;60146;52.498;13.462;2022-08-01T07:24:30;101063.72;;;24.06
72236;BMP280;60146;52.498;13.462;2022-08-01T07:26:56;101065.00;;;24.19
72236;BMP280;60146;52.498;13.462;2022-08-01T07:29:23;101056.69;;;24.63
72236;BMP280;60146;52.498;13.462;2022-08-01T07:31:53;101059.28;;;24.52
72236;BMP280;60146;52.498;13.462;2022-08-01T07:34:19;101061.13;;;24.48
72236;BMP280;60146;52.498;13.462;2022-08-01T07:36:45;101070.25;;;24.41
72236;BMP280;60146;52.498;13.462;2022-08-01T07:39:10;101070.34;;;24.19
72236;BMP280;60146;52.498;13.462;2022-08-01T07:41:35;101076.78;;;24.11
72236;BMP280;60146;52.498;13.462;2022-08-01T07:44:01;101080.09;;;24.01
72236;BMP280;60146;52.498;13.462;2022-08-01T07:46:29;101069.72;;;23.96
72236;BMP280;60146;52.498;13.462;2022-08-01T07:48:56;101082.19;;;23.86
72236;BMP280;60146;52.498;13.462;2022-08-01T07:51:21;101079.94;;;23.88
72236;BMP280;60146;52.498;13.462;2022-08-01T07:53:47;101083.03;;;23.93
72236;BMP280;60146;52.498;13.462;2022-08-01T07:56:13;101090.91;;;24.08
72236;BMP280;60146;52.498;13.462;2022-08-01T07:58:39;101097.41;;;24.39
72236;BMP280;60146;52.498;13.462;2022-08-01T08:01:04;101091.44;;;24.52
72236;BMP280;60146;52.498;13.462;2022-08-01T08:03:30;101081.13;;;24.58
72236;BMP280;60146;52.498;13.462;2022-08-01T08:05:55;101086.09;;;24.52
72236;BMP280;60146;52.498;13.462;2022-08-01T08:08:21;101083.91;;;24.64
72236;BMP280;60146;52.498;13.462;2022-08-01T08:10:46;101088.88;;;24.63
72236;BMP280;60146;52.498;13.462;2022-08-01T08:13:11;101086.97;;;24.63
72236;BMP280;60146;52.498;13.462;2022-08-01T08:15:37;101093.53;;;24.33
72236;BMP280;60146;52.498;13.462;2022-08-01T08:18:05;101096.91;;;24.27
72236;BMP280;60146;52.498;13.462;2022-08-01T08:20:31;101097.06;;;24.12
72236;BMP280;60146;52.498;13.462;2022-08-01T08:22:56;101095.25;;;23.91
72236;BMP280;60146;52.498;13.462;2022-08-01T08:25:25;101109.72;;;23.57
72236;BMP280;60146;52.498;13.462;2022-08-01T08:27:51;101105.72;;;23.48
72236;BMP280;60146;52.498;13.462;2022-08-01T08:30:17;101102.81;;;23.35
72236;BMP280;60146;52.498;13.462;2022-08-01T08:32:42;101104.78;;;23.38
72236;BMP280;60146;52.498;13.462;2022-08-01T08:35:08;101102.88;;;23.38
72236;BMP280;60146;52.498;13.462;2022-08-01T08:37:35;101104.13;;;23.44
72236;BMP280;60146;52.498;13.462;2022-08-01T08:40:01;101118.16;;;23.59
72236;BMP280;60146;52.498;13.462;2022-08-01T08:42:26;101114.47;;;23.67
72236;BMP280;60146;52.498;13.462;2022-08-01T08:44:51;101115.03;;;23.83
72236;BMP280;60146;52.498;13.462;2022-08-01T08:47:21;101117.00;;;23.86
72236;BMP280;60146;52.498;13.462;2022-08-01T08:49:48;101107.22;;;23.96
72236;BMP280;60146;52.498;13.462;2022-08-01T08:52:14;101108.13;;;24.07
72236;BMP280;60146;52.498;13.462;2022-08-01T08:54:41;101118.47;;;24.37
72236;BMP280;60146;52.498;13.462;2022-08-01T08:57:06;101116.09;;;24.68
72236;BMP280;60146;52.498;13.462;2022-08-01T08:59:32;101111.41;;;24.94
72236;BMP280;60146;52.498;13.462;2022-08-01T09:01:58;101113.31;;;24.97
72236;BMP280;60146;52.498;13.462;2022-08-01T09:04:24;101119.06;;;24.56
72236;BMP280;60146;52.498;13.462;2022-08-01T09:06:49;101120.59;;;24.57
72236;BMP280;60146;52.498;13.462;2022-08-01T09:09:15;101121.31;;;24.51
72236;BMP280;60146;52.498;13.462;2022-08-01T09:11:40;101115.03;;;24.40
72236;BMP280;60146;52.498;13.462;2022-08-01T09:14:16;101124.41;;;24.53
72236;BMP280;60146;52.498;13.462;2022-08-01T09:19:25;101120.81;;;25.17
72236;BMP280;60146;52.498;13.462;2022-08-01T09:21:59;101121.25;;;25.25
72236;BMP280;60146;52.498;13.462;2022-08-01T09:24:28;101128.19;;;25.26
72236;BMP280;60146;52.498;13.462;2022-08-01T09:26:54;101133.13;;;25.21
72236;BMP280;60146;52.498;13.462;2022-08-01T09:29:25;101126.50;;;25.08
72236;BMP280;60146;52.498;13.462;2022-08-01T09:31:51;101125.50;;;24.87
72236;BMP280;60146;52.498;13.462;2022-08-01T09:34:27;101136.13;;;24.77
72236;BMP280;60146;52.498;13.462;2022-08-01T09:36:57;101142.78;;;24.54
72236;BMP280;60146;52.498;13.462;2022-08-01T09:41:57;101140.97;;;24.62
72236;BMP280;60146;52.498;13.462;2022-08-01T09:44:43;101145.00;;;24.81
72236;BMP280;60146;52.498;13.462;2022-08-01T09:47:09;101142.63;;;25.08
72236;BMP280;60146;52.498;13.462;2022-08-01T09:49:36;101144.31;;;25.30
72236;BMP280;60146;52.498;13.462;2022-08-01T09:52:18;101137.72;;;25.20
72236;BMP280;60146;52.498;13.462;2022-08-01T09:54:52;101145.63;;;25.07
72236;BMP280;60146;52.498;13.462;2022-08-01T09:57:19;101153.63;;;25.00
72236;BMP280;60146;52.498;13.462;2022-08-01T09:59:47;101159.81;;;24.68
72236;BMP280;60146;52.498;13.462;2022-08-01T10:02:27;101161.94;;;24.53
72236;BMP280;60146;52.498;13.462;2022-08-01T10:04:53;101165.75;;;24.52
72236;BMP280;60146;52.498;13.462;2022-08-01T10:07:20;101169.63;;;24.58
72236;BMP280;60146;52.498;13.462;2022-08-01T10:09:46;101171.19;;;24.59
72236;BMP280;60146;52.498;13.462;2022-08-01T10:12:14;101174.72;;;24.34
72236;BMP280;60146;52.498;13.462;2022-08-01T10:14:40;101172.97;;;24.48
72236;BMP280;60146;52.498;13.462;2022-08-01T10:17:08;101168.78;;;24.50
72236;BMP280;60146;52.498;13.462;2022-08-01T10:19:35;101173.56;;;24.67
72236;BMP280;60146;52.498;13.462;2022-08-01T10:22:04;101170.00;;;24.88
72236;BMP280;60146;52.498;13.462;2022-08-01T10:24:30;101173.81;;;24.87
72236;BMP280;60146;52.498;13.462;2022-08-01T10:27:02;101176.00;;;25.14
72236;BMP280;60146;52.498;13.462;2022-08-01T10:29:34;101173.78;;;25.23
72236;BMP280;60146;52.498;13.462;2022-08-01T10:32:00;101171.16;;;25.26
72236;BMP280;60146;52.498;13.462;2022-08-01T10:34:27;101177.97;;;25.17
72236;BMP280;60146;52.498;13.462;2022-08-01T10:36:52;101173.00;;;25.22
72236;BMP280;60146;52.498;13.462;2022-08-01T10:39:18;101174.13;;;25.18
72236;BMP280;60146;52.498;13.462;2022-08-01T10:41:45;101182.66;;;25.27
72236;BMP280;60146;52.498;13.462;2022-08-01T10:44:10;101176.16;;;25.34
72236;BMP280;60146;52.498;13.462;2022-08-01T10:46:44;101179.69;;;25.38
72236;BMP280;60146;52.498;13.462;2022-08-01T10:49:13;101185.84;;;25.42
72236;BMP280;60146;52.498;13.462;2022-08-01T10:51:39;101174.66;;;25.34
72236;BMP280;60146;52.498;13.462;2022-08-01T10:54:06;101172.22;;;25.18
72236;BMP280;60146;52.498;13.462;2022-08-01T10:56:46;101185.19;;;25.13
72236;BMP280;60146;52.498;13.462;2022-08-01T10:59:27;101178.25;;;25.09
72236;BMP280;60146;52.498;13.462;2022-08-01T11:02:03;101184.81;;;25.11
72236;BMP280;60146;52.498;13.462;2022-08-01T11:07:53;101187.19;;;25.23
72236;BMP280;60146;52.498;13.462;2022-08-01T11:12:48;101184.91;;;25.25
72236;BMP280;60146;52.498;13.462;2022-08-01T11:17:40;101199.09;;;25.64
72236;BMP280;60146;52.498;13.462;2022-08-01T11:25:27;101196.22;;;25.96
72236;BMP280;60146;52.498;13.462;2022-08-01T11:30:42;101203.38;;;25.75
72236;BMP280;60146;52.498;13.462;2022-08-01T11:33:08;101210.53;;;25.58
72236;BMP280;60146;52.498;13.462;2022-08-01T11:35:35;101220.91;;;25.17
72236;BMP280;60146;52.498;13.462;2022-08-01T11:38:22;101235.22;;;24.96
72236;BMP280;60146;52.498;13.462;2022-08-01T11:41:11;101232.53;;;24.63
72236;BMP280;60146;52.498;13.462;2022-08-01T11:44:00;101233.91;;;24.51
72236;BMP280;60146;52.498;13.462;2022-08-01T11:52:02;101238.31;;;24.37
72236;BMP280;60146;52.498;13.462;2022-08-01T11:54:30;101245.47;;;24.55
72236;BMP280;60146;52.498;13.462;2022-08-01T11:56:57;101243.88;;;24.79
72236;BMP280;60146;52.498;13.462;2022-08-01T11:59:22;101244.03;;;24.96
72236;BMP280;60146;52.498;13.462;2022-08-01T12:01:48;101242.41;;;25.17
72236;BMP280;60146;52.498;13.462;2022-08-01T12:04:13;101243.88;;;25.15
72236;BMP280;60146;52.498;13.462;2022-08-01T12:06:39;101234.72;;;25.19
72236;BMP280;60146;52.498;13.462;2022-08-01T12:09:21;101224.38;;;25.63
72236;BMP280;60146;52.498;13.462;2022-08-01T12:11:47;101229.94;;;25.87
72236;BMP280;60146;52.498;13.462;2022-08-01T12:14:19;101228.44;;;25.93
72236;BMP280;60146;52.498;13.462;2022-08-01T12:16:52;101224.72;;;26.14
72236;BMP280;60146;52.498;13.462;2022-08-01T12:19:22;101224.22;;;26.75
72236;BMP280;60146;52.498;13.462;2022-08-01T12:22:09;101217.41;;;27.49
72236;BMP280;60146;52.498;13.462;2022-08-01T12:24:35;101218.84;;;28.08
72236;BMP280;60146;52.498;13.462;2022-08-01T12:27:01;101220.75;;;28.17
72236;BMP280;60146;52.498;13.462;2022-08-01T12:29:35;101210.34;;;28.83
72236;BMP280;60146;52.498;13.462;2022-08-01T12:32:00;101217.88;;;28.51
72236;BMP280;60146;52.498;13.462;2022-08-01T12:34:28;101222.44;;;28.61
72236;BMP280;60146;52.498;13.462;2022-08-01T12:36:55;101224.13;;;28.35
72236;BMP280;60146;52.498;13.462;2022-08-01T12:39:21;101224.25;;;28.01
72236;BMP280;60146;52.498;13.462;2022-08-01T12:41:49;101223.88;;;27.92
72236;BMP280;60146;52.498;13.462;2022-08-01T12:44:14;101221.19;;;27.92
72236;BMP280;60146;52.498;13.462;2022-08-01T12:46:41;101218.50;;;27.99
72236;BMP280;60146;52.498;13.462;2022-08-01T12:49:07;101216.94;;;28.01
72236;BMP280;60146;52.498;13.462;2022-08-01T12:51:33;101217.22;;;28.24
72236;BMP280;60146;52.498;13.462;2022-08-01T12:53:59;101223.03;;;28.15
72236;BMP280;60146;52.498;13.462;2022-08-01T12:56:32;101223.34;;;28.34
72236;BMP280;60146;52.498;13.462;2022-08-01T12:58:58;101217.28;;;28.07
72236;BMP280;60146;52.498;13.462;2022-08-01T13:01:27;101215.88;;;28.66
72236;BMP280;60146;52.498;13.462;2022-08-01T13:04:00;101213.44;;;28.84
72236;BMP280;60146;52.498;13.462;2022-08-01T13:06:28;101212.28;;;29.32
72236;BMP280;60146;52.498;13.462;2022-08-01T13:08:54;101210.84;;;29.96
72236;BMP280;60146;52.498;13.462;2022-08-01T13:11:20;101208.56;;;31.61
72236;BMP280;60146;52.498;13.462;2022-08-01T13:17:08;101210.34;;;31.07
72236;BMP280;60146;52.498;13.462;2022-08-01T13:19:44;101207.00;;;30.22
72236;BMP280;60146;52.498;13.462;2022-08-01T13:22:09;101215.25;;;29.44
72236;BMP280;60146;52.498;13.462;2022-08-01T13:24:35;101220.50;;;28.65
72236;BMP280;60146;52.498;13.462;2022-08-01T13:27:03;101218.13;;;27.90
72236;BMP280;60146;52.498;13.462;2022-08-01T13:29:35;101211.59;;;27.81
72236;BMP280;60146;52.498;13.462;2022-08-01T13:32:16;101216.63;;;27.28
72236;BMP280;60146;52.498;13.462;2022-08-01T13:34:42;101225.06;;;26.96
72236;BMP280;60146;52.498;13.462;2022-08-01T13:37:07;101227.31;;;26.80
72236;BMP280;60146;52.498;13.462;2022-08-01T13:39:33;101228.88;;;26.85
72236;BMP280;60146;52.498;13.462;2022-08-01T13:42:13;101221.97;;;26.94
72236;BMP280;60146;52.498;13.462;2022-08-01T13:44:45;101224.72;;;27.14
72236;BMP280;60146;52.498;13.462;2022-08-01T13:47:10;101235.09;;;27.19
72236;BMP280;60146;52.498;13.462;2022-08-01T13:49:36;101235.88;;;27.27
72236;BMP280;60146;52.498;13.462;2022-08-01T13:52:01;101231.28;;;27.27
72236;BMP280;60146;52.498;13.462;2022-08-01T13:54:27;101225.13;;;27.23
72236;BMP280;60146;52.498;13.462;2022-08-01T13:56:53;101224.72;;;27.18
72236;BMP280;60146;52.498;13.462;2022-08-01T13:59:19;101249.66;;;26.88
72236;BMP280;60146;52.498;13.462;2022-08-01T14:01:45;101238.84;;;26.74
72236;BMP280;60146;52.498;13.462;2022-08-01T14:04:10;101237.25;;;26.53
72236;BMP280;60146;52.498;13.462;2022-08-01T14:06:35;101247.13;;;26.32
72236;BMP280;60146;52.498;13.462;2022-08-01T14:09:02;101255.09;;;26.18
72236;BMP280;60146;52.498;13.462;2022-08-01T14:11:29;101255.41;;;26.06
72236;BMP280;60146;52.498;13.462;2022-08-01T14:13:55;101250.75;;;26.00
72236;BMP280;60146;52.498;13.462;2022-08-01T14:16:21;101257.84;;;26.25
72236;BMP280;60146;52.498;13.462;2022-08-01T14:18:47;101249.50;;;26.47
72236;BMP280;60146;52.498;13.462;2022-08-01T14:21:12;101265.03;;;26.77
72236;BMP280;60146;52.498;13.462;2022-08-01T14:23:39;101260.44;;;27.01
72236;BMP280;60146;52.498;13.462;2022-08-01T14:26:10;101252.78;;;27.20